sensor_id;sensor_type;location;lat;lon;timestamp;temperature;humidity
11812;DHT22;5963;50.184;9.162;2023-04-25T00:01:36;8.10;99.90
11812;DHT22;5963;50.184;9.162;2023-04-25T00:04:06;8.20;99.90
11812;DHT22;5963;50.184;9.162;2023-04-25T00:06:38;8.10;99.90
11812;DHT22;5963;50.184;9.162;2023-04-25T00:09:08;8.10;99.90
11812;DHT22;5963;50.184;9.162;2023-04-25T00:11:39;8.30;99.90
11812;DHT22;5963;50.184;9.162;2023-04-25T00:14:09;8.20;99.90
11812;DHT22;5963;50.184;9.162;2023-04-25T00:16:38;8.20;99.90
11812;DHT22;5963;50.184;9.162;2023-04-25T00:19:10;8.20;99.90
11812;DHT22;5963;50.184;9.162;2023-04-25T00:21:41;8.20;99.90
11812;DHT22;5963;50.184;9.162;2023-04-25T00:24:11;8.10;99.90
11812;DHT22;5963;50.184;9.162;2023-04-25T00:26:41;8.00;99.90
11812;DHT22;5963;50.184;9.162;2023-04-25T00:29:11;8.00;99.90
11812;DHT22;5963;50.184;9.162;2023-04-25T00:31:39;7.90;99.90
11812;DHT22;5963;50.184;9.162;2023-04-25T00:34:09;7.90;99.90
11812;DHT22;5963;50.184;9.162;2023-04-25T00:36:38;7.80;99.90
11812;DHT22;5963;50.184;9.162;2023-04-25T00:39:08;7.80;99.90
11812;DHT22;5963;50.184;9.162;2023-04-25T00:41:38;7.80;99.90
11812;DHT22;5963;50.184;9.162;2023-04-25T00:44:09;7.80;99.90
11812;DHT22;5963;50.184;9.162;2023-04-25T00:46:40;7.80;99.90
11812;DHT22;5963;50.184;9.162;2023-04-25T00:49:08;7.70;99.90
11812;DHT22;5963;50.184;9.162;2023-04-25T00:51:45;7.70;99.90
11812;DHT22;5963;50.184;9.162;2023-04-25T00:54:15;7.60;99.90
11812;DHT22;5963;50.184;9.162;2023-04-25T00:56:45;7.60;99.90
11812;DHT22;5963;50.184;9.162;2023-04-25T00:59:15;7.60;99.90
11812;DHT22;5963;50.184;9.162;2023-04-25T01:01:45;7.50;99.90
11812;DHT22;5963;50.184;9.162;2023-04-25T01:04:15;7.50;99.90
11812;DHT22;5963;50.184;9.162;2023-04-25T01:06:47;7.50;99.90
11812;DHT22;5963;50.184;9.162;2023-04-25T01:09:17;7.40;99.90
11812;DHT22;5963;50.184;9.162;2023-04-25T01:11:47;7.40;99.90
11812;DHT22;5963;50.184;9.162;2023-04-25T01:14:17;7.50;99.90
11812;DHT22;5963;50.184;9.162;2023-04-25T01:16:47;7.40;99.90
11812;DHT22;5963;50.184;9.162;2023-04-25T01:19:18;7.40;99.90
11812;DHT22;5963;50.184;9.162;2023-04-25T01:21:50;7.50;99.90
11812;DHT22;5963;50.184;9.162;2023-04-25T01:24:20;7.40;99.90
11812;DHT22;5963;50.184;9.162;2023-04-25T01:26:50;7.50;99.90
11812;DHT22;5963;50.184;9.162;2023-04-25T01:29:22;7.50;99.90
11812;DHT22;5963;50.184;9.162;2023-04-25T01:31:53;7.50;99.90
11812;DHT22;5963;50.184;9.162;2023-04-25T01:34:22;7.40;99.90
11812;DHT22;5963;50.184;9.162;2023-04-25T01:36:54;7.40;99.90
11812;DHT22;5963;50.184;9.162;2023-04-25T01:39:24;7.40;99.90
11812;DHT22;5963;50.184;9.162;2023-04-25T01:41:54;7.30;99.90
11812;DHT22;5963;50.184;9.162;2023-04-25T01:44:25;7.40;99.90
11812;DHT22;5963;50.184;9.162;2023-04-25T01:46:55;7.40;99.90
11812;DHT22;5963;50.184;9.162;2023-04-25T01:49:23;7.40;99.90
11812;DHT22;5963;50.184;9.162;2023-04-25T01:51:54;7.40;99.90
11812;DHT22;5963;50.184;9.162;2023-04-25T01:54:24;7.40;99.90
11812;DHT22;5963;50.184;9.162;2023-04-25T01:56:55;7.40;99.90
11812;DHT22;5963;50.184;9.162;2023-04-25T01:59:26;7.30;99.90
11812;DHT22;5963;50.184;9.162;2023-04-25T02:01:56;7.30;99.90
11812;DHT22;5963;50.184;9.162;2023-04-25T02:04:26;7.30;99.90
11812;DHT22;5963;50.184;9.162;2023-04-25T02:06:57;7.30;99.90
11812;DHT22;5963;50.184;9.162;2023-04-25T02:09:27;7.30;99.90
11812;DHT22;5963;50.184;9.162;2023-04-25T02:11:57;7.30;99.90
11812;DHT22;5963;50.184;9.162;2023-04-25T02:14:27;7.30;99.90
11812;DHT22;5963;50.184;9.162;2023-04-25T02:16:57;7.40;99.90
11812;DHT22;5963;50.184;9.162;2023-04-25T02:19:27;7.40;99.90
11812;DHT22;5963;50.184;9.162;2023-04-25T02:21:58;7.30;99.90
11812;DHT22;5963;50.184;9.162;2023-04-25T02:24:28;7.40;99.90
11812;DHT22;5963;50.184;9.162;2023-04-25T02:26:58;7.30;99.90
11812;DHT22;5963;50.184;9.162;2023-04-25T02:29:28;7.30;99.90
11812;DHT22;5963;50.184;9.162;2023-04-25T02:31:58;7.30;99.90
11812;DHT22;5963;50.184;9.162;2023-04-25T02:34:28;7.30;99.90
11812;DHT22;5963;50.184;9.162;2023-04-25T02:36:59;7.30;99.90
11812;DHT22;5963;50.184;9.162;2023-04-25T02:39:29;7.20;99.90
11812;DHT22;5963;50.184;9.162;2023-04-25T02:41:58;7.20;99.90
11812;DHT22;5963;50.184;9.162;2023-04-25T02:44:29;7.30;99.90
11812;DHT22;5963;50.184;9.162;2023-04-25T02:46:59;7.30;99.90
11812;DHT22;5963;50.184;9.162;2023-04-25T02:49:29;7.30;99.90
11812;DHT22;5963;50.184;9.162;2023-04-25T02:52:00;7.20;99.90
11812;DHT22;5963;50.184;9.162;2023-04-25T02:54:30;7.30;99.90
11812;DHT22;5963;50.184;9.162;2023-04-25T02:57:00;7.20;99.90
11812;DHT22;5963;50.184;9.162;2023-04-25T02:59:31;7.20;99.90
11812;DHT22;5963;50.184;9.162;2023-04-25T03:02:00;7.20;99.90
11812;DHT22;5963;50.184;9.162;2023-04-25T03:04:30;7.20;99.90
11812;DHT22;5963;50.184;9.162;2023-04-25T03:07:03;7.30;99.90
11812;DHT22;5963;50.184;9.162;2023-04-25T03:09:33;7.30;99.90
11812;DHT22;5963;50.184;9.162;2023-04-25T03:12:03;7.30;99.90
11812;DHT22;5963;50.184;9.162;2023-04-25T03:14:33;7.20;99.90
11812;DHT22;5963;50.184;9.162;2023-04-25T03:17:02;7.30;99.90
11812;DHT22;5963;50.184;9.162;2023-04-25T03:19:32;7.30;99.90
11812;DHT22;5963;50.184;9.162;2023-04-25T03:22:03;7.30;99.90
11812;DHT22;5963;50.184;9.162;2023-04-25T03:24:33;7.30;99.90
11812;DHT22;5963;50.184;9.162;2023-04-25T03:27:03;7.20;99.90
11812;DHT22;5963;50.184;9.162;2023-04-25T03:29:32;7.10;99.90
11812;DHT22;5963;50.184;9.162;2023-04-25T03:32:04;7.10;99.90
11812;DHT22;5963;50.184;9.162;2023-04-25T03:34:34;7.10;99.90
11812;DHT22;5963;50.184;9.162;2023-04-25T03:37:05;7.10;99.90
11812;DHT22;5963;50.184;9.162;2023-04-25T03:39:34;7.10;99.90
11812;DHT22;5963;50.184;9.162;2023-04-25T03:42:04;7.10;99.90
11812;DHT22;5963;50.184;9.162;2023-04-25T03:44:34;7.00;99.90
11812;DHT22;5963;50.184;9.162;2023-04-25T03:47:04;7.00;99.90
11812;DHT22;5963;50.184;9.162;2023-04-25T03:49:34;7.00;99.90
11812;DHT22;5963;50.184;9.162;2023-04-25T03:52:06;7.10;99.90
11812;DHT22;5963;50.184;9.162;2023-04-25T03:54:36;7.00;99.90
11812;DHT22;5963;50.184;9.162;2023-04-25T03:57:05;7.00;99.90
11812;DHT22;5963;50.184;9.162;2023-04-25T03:59:35;7.00;99.90
11812;DHT22;5963;50.184;9.162;2023-04-25T04:02:05;6.90;99.90
11812;DHT22;5963;50.184;9.162;2023-04-25T04:04:35;6.90;99.90
11812;DHT22;5963;50.184;9.162;2023-04-25T04:07:08;6.90;99.90
11812;DHT22;5963;50.184;9.162;2023-04-25T04:09:38;6.80;99.90
11812;DHT22;5963;50.184;9.162;2023-04-25T04:12:09;6.90;99.90
11812;DHT22;5963;50.184;9.162;2023-04-25T04:14:38;6.90;99.90
11812;DHT22;5963;50.184;9.162;2023-04-25T04:17:08;6.80;99.90
11812;DHT22;5963;50.184;9.162;2023-04-25T04:19:38;6.70;99.90
11812;DHT22;5963;50.184;9.162;2023-04-25T04:22:09;6.60;99.90
11812;DHT22;5963;50.184;9.162;2023-04-25T04:24:39;6.60;99.90
11812;DHT22;5963;50.184;9.162;2023-04-25T04:27:12;6.60;99.90
11812;DHT22;5963;50.184;9.162;2023-04-25T04:29:42;6.60;99.90
11812;DHT22;5963;50.184;9.162;2023-04-25T04:32:12;6.70;99.90
11812;DHT22;5963;50.184;9.162;2023-04-25T04:34:41;6.70;99.90
11812;DHT22;5963;50.184;9.162;2023-04-25T04:37:13;6.80;99.90
11812;DHT22;5963;50.184;9.162;2023-04-25T04:39:43;6.80;99.90
11812;DHT22;5963;50.184;9.162;2023-04-25T04:42:12;6.80;99.90
11812;DHT22;5963;50.184;9.162;2023-04-25T04:44:42;6.80;99.90
11812;DHT22;5963;50.184;9.162;2023-04-25T04:47:12;6.90;99.90
11812;DHT22;5963;50.184;9.162;2023-04-25T04:49:42;7.10;99.90
11812;DHT22;5963;50.184;9.162;2023-04-25T04:52:14;7.20;99.90
11812;DHT22;5963;50.184;9.162;2023-04-25T04:54:44;7.20;99.90
11812;DHT22;5963;50.184;9.162;2023-04-25T04:57:14;7.20;99.90
11812;DHT22;5963;50.184;9.162;2023-04-25T04:59:44;7.30;99.90
11812;DHT22;5963;50.184;9.162;2023-04-25T05:02:14;7.30;99.90
11812;DHT22;5963;50.184;9.162;2023-04-25T05:04:44;7.30;99.90
11812;DHT22;5963;50.184;9.162;2023-04-25T05:07:15;7.50;99.90
11812;DHT22;5963;50.184;9.162;2023-04-25T05:09:45;7.50;99.90
11812;DHT22;5963;50.184;9.162;2023-04-25T05:12:15;7.50;99.90
11812;DHT22;5963;50.184;9.162;2023-04-25T05:14:45;7.40;99.90
11812;DHT22;5963;50.184;9.162;2023-04-25T05:17:14;7.40;99.90
11812;DHT22;5963;50.184;9.162;2023-04-25T05:19:44;7.50;99.90
11812;DHT22;5963;50.184;9.162;2023-04-25T05:22:15;7.60;99.90
11812;DHT22;5963;50.184;9.162;2023-04-25T05:24:45;7.70;99.90
11812;DHT22;5963;50.184;9.162;2023-04-25T05:27:18;7.90;99.90
11812;DHT22;5963;50.184;9.162;2023-04-25T05:29:48;7.90;99.90
11812;DHT22;5963;50.184;9.162;2023-04-25T05:32:18;7.80;99.90
11812;DHT22;5963;50.184;9.162;2023-04-25T05:34:47;7.70;99.90
11812;DHT22;5963;50.184;9.162;2023-04-25T05:37:18;7.90;99.90
11812;DHT22;5963;50.184;9.162;2023-04-25T05:39:48;8.10;99.90
11812;DHT22;5963;50.184;9.162;2023-04-25T05:42:18;8.10;99.90
11812;DHT22;5963;50.184;9.162;2023-04-25T05:44:48;8.50;99.90
11812;DHT22;5963;50.184;9.162;2023-04-25T05:47:17;8.80;99.90
11812;DHT22;5963;50.184;9.162;2023-04-25T05:49:47;8.70;99.90
11812;DHT22;5963;50.184;9.162;2023-04-25T05:52:16;8.90;99.90
11812;DHT22;5963;50.184;9.162;2023-04-25T05:54:46;9.00;99.90
11812;DHT22;5963;50.184;9.162;2023-04-25T05:57:26;8.80;99.90
11812;DHT22;5963;50.184;9.162;2023-04-25T05:59:56;8.80;99.90
11812;DHT22;5963;50.184;9.162;2023-04-25T06:02:26;8.90;99.90
11812;DHT22;5963;50.184;9.162;2023-04-25T06:04:56;8.60;99.90
11812;DHT22;5963;50.184;9.162;2023-04-25T06:07:27;8.80;99.90
11812;DHT22;5963;50.184;9.162;2023-04-25T06:09:57;8.80;99.90
11812;DHT22;5963;50.184;9.162;2023-04-25T06:12:28;9.20;99.90
11812;DHT22;5963;50.184;9.162;2023-04-25T06:14:58;10.20;99.90
11812;DHT22;5963;50.184;9.162;2023-04-25T06:17:27;10.70;99.90
11812;DHT22;5963;50.184;9.162;2023-04-25T06:19:57;11.10;99.90
11812;DHT22;5963;50.184;9.162;2023-04-25T06:22:28;11.50;99.90
11812;DHT22;5963;50.184;9.162;2023-04-25T06:24:58;11.80;99.90
11812;DHT22;5963;50.184;9.162;2023-04-25T06:27:28;11.20;99.90
11812;DHT22;5963;50.184;9.162;2023-04-25T06:29:58;10.80;99.90
11812;DHT22;5963;50.184;9.162;2023-04-25T06:32:28;10.40;99.90
11812;DHT22;5963;50.184;9.162;2023-04-25T06:34:58;9.90;99.90
11812;DHT22;5963;50.184;9.162;2023-04-25T06:37:29;9.30;99.90
11812;DHT22;5963;50.184;9.162;2023-04-25T06:39:59;9.00;99.90
11812;DHT22;5963;50.184;9.162;2023-04-25T06:42:29;8.90;99.90
11812;DHT22;5963;50.184;9.162;2023-04-25T06:44:59;9.40;99.90
11812;DHT22;5963;50.184;9.162;2023-04-25T06:47:29;9.90;99.90
11812;DHT22;5963;50.184;9.162;2023-04-25T06:49:59;10.30;99.90
11812;DHT22;5963;50.184;9.162;2023-04-25T06:52:30;10.60;99.90
11812;DHT22;5963;50.184;9.162;2023-04-25T06:55:03;10.60;99.90
11812;DHT22;5963;50.184;9.162;2023-04-25T06:57:34;10.60;99.90
11812;DHT22;5963;50.184;9.162;2023-04-25T07:00:04;10.70;99.90
11812;DHT22;5963;50.184;9.162;2023-04-25T07:02:37;10.50;99.90
11812;DHT22;5963;50.184;9.162;2023-04-25T07:05:07;10.50;99.90
11812;DHT22;5963;50.184;9.162;2023-04-25T07:07:38;10.50;99.90
11812;DHT22;5963;50.184;9.162;2023-04-25T07:10:09;10.30;99.90
11812;DHT22;5963;50.184;9.162;2023-04-25T07:12:39;10.40;99.90
11812;DHT22;5963;50.184;9.162;2023-04-25T07:15:09;10.70;99.90
11812;DHT22;5963;50.184;9.162;2023-04-25T07:17:40;11.00;99.90
11812;DHT22;5963;50.184;9.162;2023-04-25T07:20:10;11.20;99.90
11812;DHT22;5963;50.184;9.162;2023-04-25T07:22:41;11.30;99.90
11812;DHT22;5963;50.184;9.162;2023-04-25T07:25:11;11.00;99.90
11812;DHT22;5963;50.184;9.162;2023-04-25T07:27:41;10.90;99.90
11812;DHT22;5963;50.184;9.162;2023-04-25T07:30:11;10.90;99.90
11812;DHT22;5963;50.184;9.162;2023-04-25T07:32:41;11.10;99.90
11812;DHT22;5963;50.184;9.162;2023-04-25T07:35:11;11.40;99.90
11812;DHT22;5963;50.184;9.162;2023-04-25T07:37:42;11.40;99.90
11812;DHT22;5963;50.184;9.162;2023-04-25T07:40:13;11.20;99.90
11812;DHT22;5963;50.184;9.162;2023-04-25T07:42:43;11.40;99.90
11812;DHT22;5963;50.184;9.162;2023-04-25T07:45:13;11.40;99.90
11812;DHT22;5963;50.184;9.162;2023-04-25T07:47:43;11.20;99.90
11812;DHT22;5963;50.184;9.162;2023-04-25T07:50:13;11.30;99.90
11812;DHT22;5963;50.184;9.162;2023-04-25T07:52:45;11.30;99.90
11812;DHT22;5963;50.184;9.162;2023-04-25T07:55:14;11.10;99.90
11812;DHT22;5963;50.184;9.162;2023-04-25T07:57:44;11.10;99.90
11812;DHT22;5963;50.184;9.162;2023-04-25T08:00:15;11.20;99.90
11812;DHT22;5963;50.184;9.162;2023-04-25T08:02:45;11.40;99.90
11812;DHT22;5963;50.184;9.162;2023-04-25T08:05:15;11.70;99.90
11812;DHT22;5963;50.184;9.162;2023-04-25T08:07:51;11.90;99.90
11812;DHT22;5963;50.184;9.162;2023-04-25T08:10:20;11.50;99.90
11812;DHT22;5963;50.184;9.162;2023-04-25T08:12:51;11.60;99.90
11812;DHT22;5963;50.184;9.162;2023-04-25T08:15:20;11.80;99.90
11812;DHT22;5963;50.184;9.162;2023-04-25T08:17:50;11.90;99.90
11812;DHT22;5963;50.184;9.162;2023-04-25T08:20:20;12.10;99.90
11812;DHT22;5963;50.184;9.162;2023-04-25T08:22:51;12.40;99.90
11812;DHT22;5963;50.184;9.162;2023-04-25T08:25:21;12.50;99.90
11812;DHT22;5963;50.184;9.162;2023-04-25T08:27:51;12.50;99.90
11812;DHT22;5963;50.184;9.162;2023-04-25T08:30:21;12.30;99.90
11812;DHT22;5963;50.184;9.162;2023-04-25T08:32:50;12.30;99.90
11812;DHT22;5963;50.184;9.162;2023-04-25T08:35:20;12.30;99.90
11812;DHT22;5963;50.184;9.162;2023-04-25T08:37:51;12.00;99.90
11812;DHT22;5963;50.184;9.162;2023-04-25T08:40:24;12.20;99.90
11812;DHT22;5963;50.184;9.162;2023-04-25T08:42:59;12.30;99.90
11812;DHT22;5963;50.184;9.162;2023-04-25T08:45:33;12.00;99.90
11812;DHT22;5963;50.184;9.162;2023-04-25T08:48:04;11.80;99.90
11812;DHT22;5963;50.184;9.162;2023-04-25T08:50:36;12.10;99.90
11812;DHT22;5963;50.184;9.162;2023-04-25T08:53:10;12.00;99.90
11812;DHT22;5963;50.184;9.162;2023-04-25T08:55:44;12.10;99.90
11812;DHT22;5963;50.184;9.162;2023-04-25T08:58:14;12.10;99.90
11812;DHT22;5963;50.184;9.162;2023-04-25T09:00:44;12.50;99.90
11812;DHT22;5963;50.184;9.162;2023-04-25T09:03:15;12.60;99.90
11812;DHT22;5963;50.184;9.162;2023-04-25T09:05:45;12.70;99.90
11812;DHT22;5963;50.184;9.162;2023-04-25T09:08:17;12.70;99.90
11812;DHT22;5963;50.184;9.162;2023-04-25T09:10:46;12.70;99.90
11812;DHT22;5963;50.184;9.162;2023-04-25T09:13:24;13.00;99.90
11812;DHT22;5963;50.184;9.162;2023-04-25T09:15:55;13.40;99.90
11812;DHT22;5963;50.184;9.162;2023-04-25T09:18:26;13.70;99.90
11812;DHT22;5963;50.184;9.162;2023-04-25T09:21:05;14.20;99.90
11812;DHT22;5963;50.184;9.162;2023-04-25T09:23:43;13.90;99.90
11812;DHT22;5963;50.184;9.162;2023-04-25T09:26:16;13.30;99.90
11812;DHT22;5963;50.184;9.162;2023-04-25T09:28:46;12.70;99.90
11812;DHT22;5963;50.184;9.162;2023-04-25T09:31:23;12.60;99.90
11812;DHT22;5963;50.184;9.162;2023-04-25T09:34:00;12.60;99.90
11812;DHT22;5963;50.184;9.162;2023-04-25T09:36:31;12.70;99.90
11812;DHT22;5963;50.184;9.162;2023-04-25T09:39:02;12.90;99.90
11812;DHT22;5963;50.184;9.162;2023-04-25T09:41:43;13.00;99.90
11812;DHT22;5963;50.184;9.162;2023-04-25T09:44:14;13.10;99.90
11812;DHT22;5963;50.184;9.162;2023-04-25T09:46:44;13.30;99.90
11812;DHT22;5963;50.184;9.162;2023-04-25T09:49:21;13.00;99.90
11812;DHT22;5963;50.184;9.162;2023-04-25T09:51:57;12.80;99.90
11812;DHT22;5963;50.184;9.162;2023-04-25T09:54:29;12.70;99.90
11812;DHT22;5963;50.184;9.162;2023-04-25T09:56:59;12.40;99.90
11812;DHT22;5963;50.184;9.162;2023-04-25T09:59:39;12.30;99.90
11812;DHT22;5963;50.184;9.162;2023-04-25T10:02:09;12.20;99.90
11812;DHT22;5963;50.184;9.162;2023-04-25T10:04:40;12.20;99.90
11812;DHT22;5963;50.184;9.162;2023-04-25T10:07:11;12.20;99.90
11812;DHT22;5963;50.184;9.162;2023-04-25T10:09:42;12.20;99.90
11812;DHT22;5963;50.184;9.162;2023-04-25T10:12:14;12.30;99.90
11812;DHT22;5963;50.184;9.162;2023-04-25T10:14:44;12.40;99.90
11812;DHT22;5963;50.184;9.162;2023-04-25T10:17:15;12.40;99.90
11812;DHT22;5963;50.184;9.162;2023-04-25T10:19:46;12.60;99.90
11812;DHT22;5963;50.184;9.162;2023-04-25T10:22:20;12.70;99.90
11812;DHT22;5963;50.184;9.162;2023-04-25T10:24:54;12.70;99.90
11812;DHT22;5963;50.184;9.162;2023-04-25T10:27:25;13.00;99.90
11812;DHT22;5963;50.184;9.162;2023-04-25T10:30:02;12.90;99.90
11812;DHT22;5963;50.184;9.162;2023-04-25T10:32:33;12.70;99.90
11812;DHT22;5963;50.184;9.162;2023-04-25T10:35:15;12.70;99.90
11812;DHT22;5963;50.184;9.162;2023-04-25T10:38:03;12.40;99.90
11812;DHT22;5963;50.184;9.162;2023-04-25T10:40:35;11.90;99.90
11812;DHT22;5963;50.184;9.162;2023-04-25T10:43:34;11.80;99.90
11812;DHT22;5963;50.184;9.162;2023-04-25T10:46:04;11.80;99.90
11812;DHT22;5963;50.184;9.162;2023-04-25T10:48:45;11.70;99.90
11812;DHT22;5963;50.184;9.162;2023-04-25T10:51:19;11.80;99.90
11812;DHT22;5963;50.184;9.162;2023-04-25T10:53:59;11.70;99.90
11812;DHT22;5963;50.184;9.162;2023-04-25T10:56:31;11.70;99.90
11812;DHT22;5963;50.184;9.162;2023-04-25T10:59:11;11.70;99.90
11812;DHT22;5963;50.184;9.162;2023-04-25T11:01:42;11.80;99.90
11812;DHT22;5963;50.184;9.162;2023-04-25T11:04:22;11.70;99.90
11812;DHT22;5963;50.184;9.162;2023-04-25T11:07:07;11.70;99.90
11812;DHT22;5963;50.184;9.162;2023-04-25T11:09:41;11.90;99.90
11812;DHT22;5963;50.184;9.162;2023-04-25T11:12:13;11.90;99.90
11812;DHT22;5963;50.184;9.162;2023-04-25T11:14:43;12.00;99.90
11812;DHT22;5963;50.184;9.162;2023-04-25T11:17:13;11.90;99.90
11812;DHT22;5963;50.184;9.162;2023-04-25T11:19:42;11.80;99.90
11812;DHT22;5963;50.184;9.162;2023-04-25T11:22:12;11.60;99.90
11812;DHT22;5963;50.184;9.162;2023-04-25T11:24:42;11.50;99.90
11812;DHT22;5963;50.184;9.162;2023-04-25T11:27:14;11.50;99.90
11812;DHT22;5963;50.184;9.162;2023-04-25T11:29:44;11.50;99.90
11812;DHT22;5963;50.184;9.162;2023-04-25T11:32:17;11.60;99.90
11812;DHT22;5963;50.184;9.162;2023-04-25T11:34:48;11.70;99.90
11812;DHT22;5963;50.184;9.162;2023-04-25T11:37:18;11.70;99.90
11812;DHT22;5963;50.184;9.162;2023-04-25T11:39:48;11.90;99.90
11812;DHT22;5963;50.184;9.162;2023-04-25T11:42:19;12.20;99.90
11812;DHT22;5963;50.184;9.162;2023-04-25T11:44:55;12.40;99.90
11812;DHT22;5963;50.184;9.162;2023-04-25T11:47:28;12.40;99.90
11812;DHT22;5963;50.184;9.162;2023-04-25T11:49:59;12.30;99.90
11812;DHT22;5963;50.184;9.162;2023-04-25T11:52:41;12.50;99.90
11812;DHT22;5963;50.184;9.162;2023-04-25T11:55:15;12.50;99.90
11812;DHT22;5963;50.184;9.162;2023-04-25T11:57:49;12.50;99.90
11812;DHT22;5963;50.184;9.162;2023-04-25T12:00:20;12.60;99.90
11812;DHT22;5963;50.184;9.162;2023-04-25T12:02:53;12.30;99.90
11812;DHT22;5963;50.184;9.162;2023-04-25T12:05:26;12.30;99.90
11812;DHT22;5963;50.184;9.162;2023-04-25T12:08:12;12.10;99.90
11812;DHT22;5963;50.184;9.162;2023-04-25T12:10:43;11.80;99.90
11812;DHT22;5963;50.184;9.162;2023-04-25T12:13:28;11.80;99.90
11812;DHT22;5963;50.184;9.162;2023-04-25T12:15:58;11.90;99.90
11812;DHT22;5963;50.184;9.162;2023-04-25T12:18:29;12.00;99.90
11812;DHT22;5963;50.184;9.162;2023-04-25T12:20:59;12.10;99.90
11812;DHT22;5963;50.184;9.162;2023-04-25T12:23:30;12.00;99.90
11812;DHT22;5963;50.184;9.162;2023-04-25T12:25:59;11.80;99.90
11812;DHT22;5963;50.184;9.162;2023-04-25T12:28:34;11.70;99.90
11812;DHT22;5963;50.184;9.162;2023-04-25T12:31:05;11.50;99.90
11812;DHT22;5963;50.184;9.162;2023-04-25T12:33:36;11.10;99.90
11812;DHT22;5963;50.184;9.162;2023-04-25T12:36:08;10.90;99.90
11812;DHT22;5963;50.184;9.162;2023-04-25T12:38:41;10.80;99.90
11812;DHT22;5963;50.184;9.162;2023-04-25T12:41:11;10.80;99.90
11812;DHT22;5963;50.184;9.162;2023-04-25T12:43:42;10.90;99.90
11812;DHT22;5963;50.184;9.162;2023-04-25T12:46:12;10.90;99.90
11812;DHT22;5963;50.184;9.162;2023-04-25T12:48:42;11.00;99.90
11812;DHT22;5963;50.184;9.162;2023-04-25T12:51:12;11.10;99.90
11812;DHT22;5963;50.184;9.162;2023-04-25T12:53:41;11.20;99.90
11812;DHT22;5963;50.184;9.162;2023-04-25T12:56:11;11.20;99.90
11812;DHT22;5963;50.184;9.162;2023-04-25T12:58:42;11.30;99.90
11812;DHT22;5963;50.184;9.162;2023-04-25T13:01:13;11.30;99.90
11812;DHT22;5963;50.184;9.162;2023-04-25T13:03:43;11.20;99.90
11812;DHT22;5963;50.184;9.162;2023-04-25T13:06:13;11.30;99.90
11812;DHT22;5963;50.184;9.162;2023-04-25T13:08:43;11.50;99.90
11812;DHT22;5963;50.184;9.162;2023-04-25T13:11:13;11.60;99.90
11812;DHT22;5963;50.184;9.162;2023-04-25T13:13:45;11.70;99.90
11812;DHT22;5963;50.184;9.162;2023-04-25T13:16:15;11.80;99.90
11812;DHT22;5963;50.184;9.162;2023-04-25T13:18:45;11.70;99.90
11812;DHT22;5963;50.184;9.162;2023-04-25T13:21:15;11.60;99.90
11812;DHT22;5963;50.184;9.162;2023-04-25T13:23:45;11.70;99.90
11812;DHT22;5963;50.184;9.162;2023-04-25T13:26:15;11.70;99.90
11812;DHT22;5963;50.184;9.162;2023-04-25T13:28:46;11.70;99.90
11812;DHT22;5963;50.184;9.162;2023-04-25T13:31:16;12.00;99.90
11812;DHT22;5963;50.184;9.162;2023-04-25T13:33:46;12.40;99.90
11812;DHT22;5963;50.184;9.162;2023-04-25T13:36:16;12.50;99.90
11812;DHT22;5963;50.184;9.162;2023-04-25T13:38:45;12.40;99.90
11812;DHT22;5963;50.184;9.162;2023-04-25T13:41:17;12.40;99.90
11812;DHT22;5963;50.184;9.162;2023-04-25T13:43:49;12.10;99.90
11812;DHT22;5963;50.184;9.162;2023-04-25T13:46:19;12.00;99.90
11812;DHT22;5963;50.184;9.162;2023-04-25T13:49:09;11.90;99.90
11812;DHT22;5963;50.184;9.162;2023-04-25T13:51:41;11.80;99.90
11812;DHT22;5963;50.184;9.162;2023-04-25T13:54:11;11.70;99.90
11812;DHT22;5963;50.184;9.162;2023-04-25T13:56:41;11.40;99.90
11812;DHT22;5963;50.184;9.162;2023-04-25T13:59:12;11.60;99.90
11812;DHT22;5963;50.184;9.162;2023-04-25T14:01:42;11.70;99.90
11812;DHT22;5963;50.184;9.162;2023-04-25T14:04:12;11.90;99.90
11812;DHT22;5963;50.184;9.162;2023-04-25T14:06:42;12.00;99.90
11812;DHT22;5963;50.184;9.162;2023-04-25T14:09:12;12.00;99.90
11812;DHT22;5963;50.184;9.162;2023-04-25T14:11:43;12.10;99.90
11812;DHT22;5963;50.184;9.162;2023-04-25T14:14:14;12.00;99.90
11812;DHT22;5963;50.184;9.162;2023-04-25T14:16:44;11.80;99.90
11812;DHT22;5963;50.184;9.162;2023-04-25T14:19:16;11.80;99.90
11812;DHT22;5963;50.184;9.162;2023-04-25T14:21:49;11.80;99.90
11812;DHT22;5963;50.184;9.162;2023-04-25T14:24:19;11.80;99.90
11812;DHT22;5963;50.184;9.162;2023-04-25T14:26:49;11.90;99.90
11812;DHT22;5963;50.184;9.162;2023-04-25T14:29:20;11.90;99.90
11812;DHT22;5963;50.184;9.162;2023-04-25T14:31:50;11.70;99.90
11812;DHT22;5963;50.184;9.162;2023-04-25T14:34:19;11.80;99.90
11812;DHT22;5963;50.184;9.162;2023-04-25T14:36:49;11.90;99.90
11812;DHT22;5963;50.184;9.162;2023-04-25T14:39:19;12.10;99.90
11812;DHT22;5963;50.184;9.162;2023-04-25T14:41:49;12.20;99.90
11812;DHT22;5963;50.184;9.162;2023-04-25T14:44:20;12.20;99.90
11812;DHT22;5963;50.184;9.162;2023-04-25T14:46:50;12.00;99.90
11812;DHT22;5963;50.184;9.162;2023-04-25T14:49:20;11.90;99.90
11812;DHT22;5963;50.184;9.162;2023-04-25T14:51:50;11.90;99.90
11812;DHT22;5963;50.184;9.162;2023-04-25T14:54:20;11.90;99.90
11812;DHT22;5963;50.184;9.162;2023-04-25T14:56:50;11.80;99.90
11812;DHT22;5963;50.184;9.162;2023-04-25T14:59:21;11.80;99.90
11812;DHT22;5963;50.184;9.162;2023-04-25T15:01:51;11.80;99.90
11812;DHT22;5963;50.184;9.162;2023-04-25T15:04:21;11.70;99.90
11812;DHT22;5963;50.184;9.162;2023-04-25T15:06:51;11.70;99.90
11812;DHT22;5963;50.184;9.162;2023-04-25T15:09:21;11.60;99.90
11812;DHT22;5963;50.184;9.162;2023-04-25T15:11:52;11.50;99.90
11812;DHT22;5963;50.184;9.162;2023-04-25T15:14:23;11.40;99.90
11812;DHT22;5963;50.184;9.162;2023-04-25T15:16:53;11.30;99.90
11812;DHT22;5963;50.184;9.162;2023-04-25T15:19:23;11.20;99.90
11812;DHT22;5963;50.184;9.162;2023-04-25T15:21:52;11.10;99.90
11812;DHT22;5963;50.184;9.162;2023-04-25T15:24:23;11.10;99.90
11812;DHT22;5963;50.184;9.162;2023-04-25T15:26:53;11.10;99.90
11812;DHT22;5963;50.184;9.162;2023-04-25T15:29:24;11.20;99.90
11812;DHT22;5963;50.184;9.162;2023-04-25T15:31:54;11.30;99.90
11812;DHT22;5963;50.184;9.162;2023-04-25T15:34:24;11.20;99.90
11812;DHT22;5963;50.184;9.162;2023-04-25T15:36:54;11.20;99.90
11812;DHT22;5963;50.184;9.162;2023-04-25T15:39:25;11.20;99.90
11812;DHT22;5963;50.184;9.162;2023-04-25T15:41:54;11.30;99.90
11812;DHT22;5963;50.184;9.162;2023-04-25T15:44:27;11.40;99.90
11812;DHT22;5963;50.184;9.162;2023-04-25T15:46:56;11.50;99.90
11812;DHT22;5963;50.184;9.162;2023-04-25T15:49:26;11.50;99.90
11812;DHT22;5963;50.184;9.162;2023-04-25T15:51:56;11.50;99.90
11812;DHT22;5963;50.184;9.162;2023-04-25T15:54:26;11.40;99.90
11812;DHT22;5963;50.184;9.162;2023-04-25T15:56:56;11.50;99.90
11812;DHT22;5963;50.184;9.162;2023-04-25T15:59:27;11.50;99.90
11812;DHT22;5963;50.184;9.162;2023-04-25T16:01:57;11.50;99.90
11812;DHT22;5963;50.184;9.162;2023-04-25T16:04:26;11.40;99.90
11812;DHT22;5963;50.184;9.162;2023-04-25T16:07:03;11.30;99.90
11812;DHT22;5963;50.184;9.162;2023-04-25T16:09:33;11.20;99.90
11812;DHT22;5963;50.184;9.162;2023-04-25T16:12:02;11.20;99.90
11812;DHT22;5963;50.184;9.162;2023-04-25T16:14:34;11.20;99.90
11812;DHT22;5963;50.184;9.162;2023-04-25T16:17:04;11.30;99.90